This is the latest recevied weather packets stored in our database for station/object K0NV. If no packets are shown the sender has not sent any weather packets the latest 10 day(s).
| Time | Temp. | Humidity | Pressure | Rain* | Wind** | Luminosity | Snow |
|---|---|---|---|---|---|---|---|
| 1777422569 | 15° C | 99% | 1012.9 hPa | 0 mm | - | 0 W/m² | - |
| 1777422265 | 15° C | 99% | 1013.1 hPa | 0 mm | - | 1 W/m² | - |
| 1777421959 | 15.56° C | 99% | 1012.8 hPa | 0 mm | - | 2 W/m² | - |
| 1777421654 | 15.56° C | 99% | 1012.9 hPa | 0 mm | - | 1 W/m² | - |
| 1777421349 | 15.56° C | 99% | 1013.1 hPa | 0 mm | - | 2 W/m² | - |
| 1777421046 | 15.56° C | 99% | 1012.9 hPa | 0 mm | - | 0 W/m² | - |
| 1777420742 | 16.11° C | 99% | 1012.8 hPa | 0 mm | - | 3 W/m² | - |
| 1777420438 | 16.11° C | 99% | 1012.9 hPa | 0 mm | - | 3 W/m² | - |
| 1777420136 | 16.11° C | 99% | 1012.7 hPa | 0 mm | - | 6 W/m² | - |
| 1777419831 | 16.11° C | 99% | 1013.2 hPa | 0 mm | - | 7 W/m² | - |
| 1777419529 | 16.11° C | 99% | 1013 hPa | 0 mm | - | 6 W/m² | - |
| 1777419228 | 16.11° C | 99% | 1012.8 hPa | 0 mm | - | 9 W/m² | - |
| 1777418919 | 16.11° C | 99% | 1012.3 hPa | 1.78 mm | - | 40 W/m² | - |
| 1777418614 | 16.11° C | 99% | 1012.3 hPa | 1.78 mm | - | 49 W/m² | - |
| 1777418310 | 16.11° C | 99% | 1012.1 hPa | 0 mm | - | 41 W/m² | - |
| 1777418006 | 16.11° C | 99% | 1012.5 hPa | 1.78 mm | - | 33 W/m² | - |
| 1777417702 | 16.11° C | 99% | 1011.9 hPa | 4.83 mm | - | 84 W/m² | - |
| 1777417398 | 16.11° C | 99% | 1012.1 hPa | 3.05 mm | - | 42 W/m² | - |
| 1777417095 | 16.11° C | 99% | 1012.1 hPa | 0 mm | - | 52 W/m² | - |
| 1777416790 | 16.11° C | 99% | 1012 hPa | 0 mm | - | 33 W/m² | - |
| 1777416485 | 16.11° C | 99% | 1011.9 hPa | 0 mm | - | 25 W/m² | - |
| 1777416181 | 16.11° C | 99% | 1011.4 hPa | 0 mm | - | 77 W/m² | - |
| 1777415875 | 16.11° C | 99% | 1012.2 hPa | 0 mm | - | 9 W/m² | - |
| 1777415572 | 16.11° C | 99% | 1011.9 hPa | 0 mm | - | 29 W/m² | - |
| 1777415267 | 16.11° C | 99% | 1011.5 hPa | 0 mm | - | 45 W/m² | - |
* Rain latest hour (hover to see other rain measurements)
** Current wind speed in m/s (hover to see current wind gust speed)